Terminal Aerodrome Forecast
Issued by NWS

Home | Current Version | Previous Version | Text Only | Print | Product List | Glossary On
Versions: 1 2 3 4 5 6 7 8 9 10 11 12 13 14 15 16 17 18 19
000
FTUS44 KBMX 191746 RRA
TAFANB
TAF
KANB 191746Z 1918/2018 23009KT P6SM BKN025 OVC040
     FM192000 22010G18KT P6SM VCTS BKN040CB
     FM200000 20007KT P6SM SCT050 BKN150
     FM200800 21008KT 4SM BR VCTS BKN015 BKN050CB
     FM201500 25013G20KT P6SM BKN025=

USA.gov is the U.S. government's official web portal to all federal, state and local government web resources and services.